Time;durP1;ratioP1;P1;durP2;ratioP2;P2;SDS_P1;SDS_P2;PMS_P1;PMS_P2;Temp;Humidity;BMP_temperature;BMP_pressure;BME280_temperature;BME280_humidity;BME280_pressure;Samples;Min_cycle;Max_cycle;Signal;HPM_P1;HPM_P2
2023/03/01 00:01:30;;;;;;;11.95;9.60;;;;;;;2.72;50.25;103019.97;5010805;28;20029;-61
2023/03/01 00:03:57;;;;;;;12.43;9.55;;;;;;;2.69;50.43;103011.03;5013132;28;20092;-61
2023/03/01 00:06:23;;;;;;;10.85;9.32;;;;;;;2.69;50.08;103018.38;5029978;28;20033;-61
2023/03/01 00:08:48;;;;;;;11.93;9.93;;;;;;;2.65;50.17;103015.06;5022005;28;20040;-61
2023/03/01 00:11:23;;;;;;;11.00;9.48;;;;;;;2.68;50.30;103020.28;5026198;28;20040;-61
2023/03/01 00:13:50;;;;;;;12.45;9.10;;;;;;;2.65;50.23;103015.06;5028776;28;20040;-61
2023/03/01 00:16:19;;;;;;;11.23;9.55;;;;;;;2.69;50.62;103015.66;5022779;28;20065;-61
2023/03/01 00:18:45;;;;;;;13.30;9.73;;;;;;;2.67;50.11;103010.31;5009745;28;20473;-61
2023/03/01 00:21:11;;;;;;;12.05;9.23;;;;;;;2.64;50.76;103015.22;5016965;28;20029;-61
2023/03/01 00:23:37;;;;;;;11.38;9.48;;;;;;;2.63;50.97;103014.38;5029933;28;20460;-60
2023/03/01 00:26:07;;;;;;;13.80;10.10;;;;;;;2.57;50.70;103006.72;5025817;28;20447;-60
2023/03/01 00:28:32;;;;;;;12.32;10.27;;;;;;;2.56;50.59;103009.63;5024753;28;20033;-60
2023/03/01 00:31:06;;;;;;;13.43;9.75;;;;;;;2.54;50.79;103009.75;5014832;28;20580;-60
2023/03/01 00:33:31;;;;;;;11.32;9.45;;;;;;;2.52;51.16;103008.19;5016991;28;20465;-60
2023/03/01 00:36:00;;;;;;;10.90;9.80;;;;;;;2.51;50.93;103000.97;5030026;28;20052;-60
2023/03/01 00:38:26;;;;;;;12.98;10.27;;;;;;;2.44;51.30;103008.94;5030376;28;20064;-60
2023/03/01 00:40:51;;;;;;;11.38;9.70;;;;;;;2.50;50.81;103007.47;5026085;28;20037;-60
2023/03/01 00:43:17;;;;;;;11.07;9.98;;;;;;;2.44;50.88;103004.31;5010307;28;20056;-60
2023/03/01 00:45:42;;;;;;;12.77;9.77;;;;;;;2.45;51.29;103010.66;5013987;28;20131;-61
2023/03/01 00:48:07;;;;;;;12.80;10.07;;;;;;;2.44;50.89;103006.19;5026673;28;20598;-60
2023/03/01 00:50:33;;;;;;;11.93;9.82;;;;;;;2.42;50.88;103008.19;5020886;28;20034;-60
2023/03/01 00:52:58;;;;;;;11.38;10.07;;;;;;;2.38;51.35;103001.28;5014307;28;20170;-60
2023/03/01 00:55:24;;;;;;;13.77;9.63;;;;;;;2.40;51.58;103002.00;5015173;28;20042;-60
2023/03/01 00:57:49;;;;;;;13.98;10.10;;;;;;;2.39;51.08;102995.63;5037519;28;20037;-60
2023/03/01 01:00:15;;;;;;;11.63;10.43;;;;;;;2.38;51.58;102993.91;5033097;28;20037;-60
2023/03/01 01:02:40;;;;;;;11.90;9.70;;;;;;;2.39;50.68;102994.78;5018808;28;20091;-60
2023/03/01 01:05:06;;;;;;;10.82;9.50;;;;;;;2.37;51.08;102985.84;5026991;28;20036;-60
2023/03/01 01:07:32;;;;;;;11.25;10.05;;;;;;;2.37;51.40;102974.88;5023854;28;20049;-60
2023/03/01 01:09:57;;;;;;;10.60;9.50;;;;;;;2.40;51.07;102980.09;5013481;28;20072;-60
2023/03/01 01:12:23;;;;;;;11.02;9.80;;;;;;;2.39;50.83;102983.81;5015786;28;20092;-61
2023/03/01 01:14:48;;;;;;;10.73;9.63;;;;;;;2.36;51.58;102978.66;5023513;28;20053;-60
2023/03/01 01:17:13;;;;;;;11.57;9.40;;;;;;;2.34;51.64;102975.19;5022155;28;20065;-61
2023/03/01 01:19:39;;;;;;;12.35;9.93;;;;;;;2.30;51.24;102979.22;5029104;28;20041;-61
2023/03/01 01:22:04;;;;;;;10.73;9.52;;;;;;;2.30;50.97;102976.47;5026185;28;20515;-61
2023/03/01 01:24:29;;;;;;;11.23;9.30;;;;;;;2.28;51.55;102971.16;5032243;28;20061;-61
2023/03/01 01:26:55;;;;;;;10.70;9.60;;;;;;;2.25;51.57;102970.59;5032955;28;20055;-61
2023/03/01 01:29:20;;;;;;;11.95;10.18;;;;;;;2.22;51.92;102964.38;5032036;28;20099;-61
2023/03/01 01:31:46;;;;;;;12.25;10.60;;;;;;;2.20;52.01;102954.56;5032195;28;20033;-61
2023/03/01 01:34:17;;;;;;;11.18;10.00;;;;;;;2.18;52.29;102949.25;5018747;28;20030;-61
2023/03/01 01:36:43;;;;;;;13.02;10.20;;;;;;;2.18;52.27;102935.53;5013042;28;20130;-61
2023/03/01 01:39:12;;;;;;;11.93;9.77;;;;;;;2.15;51.82;102944.03;5016856;28;20108;-61
2023/03/01 01:41:40;;;;;;;10.85;9.77;;;;;;;2.17;51.44;102949.41;5013139;28;20026;-61
2023/03/01 01:44:23;;;;;;;10.80;9.70;;;;;;;2.19;51.96;102939.16;5026861;28;20061;-61
2023/03/01 01:46:58;;;;;;;10.32;9.15;;;;;;;2.17;51.88;102936.56;5033112;28;20091;-61
2023/03/01 01:49:35;;;;;;;10.82;9.43;;;;;;;2.19;52.00;102929.03;5031709;28;20037;-61
2023/03/01 01:52:27;;;;;;;11.35;10.15;;;;;;;2.21;52.01;102927.03;5027346;28;20041;-61
2023/03/01 01:55:00;;;;;;;11.68;9.73;;;;;;;2.16;52.24;102936.69;5016215;28;20030;-61
2023/03/01 01:57:29;;;;;;;13.07;9.45;;;;;;;2.10;52.26;102938.16;5021901;28;20084;-61
2023/03/01 01:59:58;;;;;;;11.38;10.27;;;;;;;2.09;52.57;102925.47;5032787;28;20025;-60
2023/03/01 02:02:25;;;;;;;11.65;10.35;;;;;;;2.06;51.78;102927.66;5031598;28;20021;-61
2023/03/01 02:04:55;;;;;;;16.98;10.07;;;;;;;2.03;52.50;102928.78;5030934;28;20072;-61
2023/03/01 02:07:23;;;;;;;10.98;9.88;;;;;;;2.01;51.44;102916.28;5031911;28;20387;-61
2023/03/01 02:09:52;;;;;;;10.70;9.60;;;;;;;1.99;51.62;102919.13;5032419;28;20113;-61
2023/03/01 02:12:20;;;;;;;12.48;9.45;;;;;;;2.00;52.04;102915.38;5029746;28;20110;-60
2023/03/01 02:14:45;;;;;;;10.95;9.70;;;;;;;1.98;52.25;102917.41;5031373;28;20360;-61
2023/03/01 02:17:14;;;;;;;13.48;9.65;;;;;;;1.95;52.60;102910.34;5032490;28;20754;-62
2023/03/01 02:20:06;;;;;;;11.15;9.95;;;;;;;2.02;51.69;102910.63;5030353;28;20468;-61
2023/03/01 02:22:34;;;;;;;11.40;9.63;;;;;;;1.97;51.88;102912.97;5031885;28;20060;-61
2023/03/01 02:25:18;;;;;;;10.48;9.43;;;;;;;1.95;52.52;102904.00;5028355;28;20441;-61
2023/03/01 02:27:54;;;;;;;10.95;9.88;;;;;;;1.94;52.72;102907.75;5015863;28;20033;-61
2023/03/01 02:30:21;;;;;;;12.63;9.98;;;;;;;1.88;52.57;102906.44;5032461;28;20127;-61
2023/03/01 02:32:49;;;;;;;11.63;9.88;;;;;;;1.86;52.36;102903.00;5030852;28;20079;-61
2023/03/01 02:35:17;;;;;;;11.27;9.50;;;;;;;1.84;52.06;102902.28;5029641;28;20029;-61
2023/03/01 02:37:44;;;;;;;13.80;10.43;;;;;;;1.84;52.72;102901.41;5032235;28;20045;-61
2023/03/01 02:40:18;;;;;;;11.23;10.00;;;;;;;1.84;53.02;102896.81;5031803;28;20049;-62
2023/03/01 02:42:55;;;;;;;12.68;10.23;;;;;;;1.82;52.65;102903.44;5013460;28;20057;-65
2023/03/01 02:45:21;;;;;;;12.00;10.23;;;;;;;1.78;52.18;102902.88;5024506;28;20071;-61
2023/03/01 02:47:46;;;;;;;11.60;10.40;;;;;;;1.76;52.85;102909.50;5029571;28;20029;-61
2023/03/01 02:50:41;;;;;;;11.38;10.15;;;;;;;1.79;53.00;102909.22;5038646;28;20041;-61
2023/03/01 02:53:21;;;;;;;13.70;10.55;;;;;;;1.72;53.39;102909.78;5016667;28;20146;-61
2023/03/01 02:55:46;;;;;;;10.25;9.25;;;;;;;1.68;53.64;102912.97;5028214;28;20835;-61
2023/03/01 02:58:11;;;;;;;11.23;9.40;;;;;;;1.65;52.68;102908.66;5031070;28;20038;-61
2023/03/01 03:00:45;;;;;;;11.10;9.85;;;;;;;1.62;52.96;102913.56;5027341;28;20516;-61
2023/03/01 03:03:13;;;;;;;13.32;10.20;;;;;;;1.59;53.60;102911.09;5029427;28;20057;-61
2023/03/01 03:05:39;;;;;;;12.18;9.93;;;;;;;1.54;53.08;102910.66;5033336;28;20033;-61
2023/03/01 03:08:04;;;;;;;11.30;10.00;;;;;;;1.54;52.94;102900.56;5022854;28;20021;-61
2023/03/01 03:10:35;;;;;;;11.52;9.43;;;;;;;1.54;53.77;102895.09;5026962;28;20036;-60
2023/03/01 03:13:04;;;;;;;10.68;9.57;;;;;;;1.50;53.68;102907.34;5025773;28;20082;-61
2023/03/01 03:15:30;;;;;;;14.73;9.48;;;;;;;1.52;53.46;102908.06;5020388;28;20029;-61
2023/03/01 03:17:58;;;;;;;12.55;9.15;;;;;;;1.48;53.65;102912.94;5028057;28;20090;-61
2023/03/01 03:20:26;;;;;;;10.98;9.70;;;;;;;1.47;53.33;102913.97;5029267;28;20033;-61
2023/03/01 03:22:53;;;;;;;10.27;9.18;;;;;;;1.46;53.54;102905.91;5026455;28;20033;-61
2023/03/01 03:25:20;;;;;;;11.68;9.27;;;;;;;1.43;53.63;102909.78;5027665;28;20481;-62
2023/03/01 03:27:47;;;;;;;11.40;9.43;;;;;;;1.40;54.15;102901.00;5024139;28;20120;-61
2023/03/01 03:30:18;;;;;;;11.70;9.20;;;;;;;1.40;53.98;102903.72;5028496;28;20091;-61
2023/03/01 03:32:52;;;;;;;11.35;9.60;;;;;;;1.36;54.15;102908.63;5030495;28;20025;-61
2023/03/01 03:35:20;;;;;;;10.98;9.18;;;;;;;1.37;54.16;102898.53;5031389;28;20048;-61
2023/03/01 03:38:05;;;;;;;10.23;9.13;;;;;;;1.37;54.08;102899.41;5027475;28;20029;-61
2023/03/01 03:40:33;;;;;;;11.88;9.13;;;;;;;1.34;53.29;102896.09;5031421;28;20026;-61
2023/03/01 03:42:59;;;;;;;12.85;9.50;;;;;;;1.33;53.42;102899.81;5026768;28;20037;-61
2023/03/01 03:45:24;;;;;;;10.52;9.32;;;;;;;1.33;53.86;102897.94;5028427;28;20144;-61
2023/03/01 03:47:49;;;;;;;10.30;8.75;;;;;;;1.38;53.73;102897.56;5028315;28;20400;-61
2023/03/01 03:50:16;;;;;;;9.80;8.80;;;;;;;1.37;53.94;102896.66;5030703;28;20060;-61
2023/03/01 03:52:42;;;;;;;10.48;9.07;;;;;;;1.35;53.97;102895.09;5030342;28;20033;-61
2023/03/01 03:55:10;;;;;;;11.07;9.18;;;;;;;1.33;53.91;102899.81;5026757;28;20436;-61
2023/03/01 03:57:36;;;;;;;10.20;8.70;;;;;;;1.31;53.84;102899.13;5022795;28;20702;-60
2023/03/01 04:00:04;;;;;;;10.65;9.07;;;;;;;1.28;53.50;102888.44;5014373;28;20030;-61
2023/03/01 04:02:30;;;;;;;11.63;9.23;;;;;;;1.26;53.75;102885.88;5026680;28;20068;-63
2023/03/01 04:04:55;;;;;;;13.80;9.02;;;;;;;1.27;54.34;102890.34;5029938;28;20029;-61
2023/03/01 04:07:20;;;;;;;12.52;8.35;;;;;;;1.28;53.56;102885.72;5029289;28;20370;-61
2023/03/01 04:09:45;;;;;;;10.18;8.40;;;;;;;1.26;54.10;102880.41;5029743;28;20047;-61
2023/03/01 04:12:11;;;;;;;10.50;8.50;;;;;;;1.24;54.01;102882.41;5034213;28;20514;-62
2023/03/01 04:14:36;;;;;;;10.25;8.00;;;;;;;1.25;53.70;102877.78;5029778;28;20037;-60
2023/03/01 04:17:05;;;;;;;8.48;7.50;;;;;;;1.27;54.58;102875.78;5028615;28;20044;-61
2023/03/01 04:19:35;;;;;;;9.85;8.60;;;;;;;1.23;54.34;102873.34;5025691;28;20060;-61
2023/03/01 04:22:07;;;;;;;10.10;8.00;;;;;;;1.23;54.18;102865.13;5029893;28;20041;-61
2023/03/01 04:24:33;;;;;;;10.10;8.63;;;;;;;1.25;53.97;102877.78;5017887;28;20071;-60
2023/03/01 04:26:58;;;;;;;10.52;7.85;;;;;;;1.22;54.53;102877.09;5025563;28;20425;-61
2023/03/01 04:29:23;;;;;;;9.20;8.30;;;;;;;1.22;54.47;102868.88;5010239;28;20037;-61
2023/03/01 04:31:49;;;;;;;9.32;8.32;;;;;;;1.16;54.51;102866.69;5019222;28;20538;-61
2023/03/01 04:34:14;;;;;;;10.82;8.13;;;;;;;1.17;54.50;102875.75;5029826;28;20033;-63
2023/03/01 04:36:39;;;;;;;10.40;7.93;;;;;;;1.16;54.07;102869.44;5015177;28;20025;-61
2023/03/01 04:39:11;;;;;;;9.48;7.70;;;;;;;1.15;54.37;102862.25;5028704;28;20033;-61
2023/03/01 04:41:38;;;;;;;9.10;8.10;;;;;;;1.16;54.08;102863.09;5020957;28;20037;-61
2023/03/01 04:44:04;;;;;;;10.48;8.02;;;;;;;1.17;54.25;102864.81;5030173;28;20053;-61
2023/03/01 04:46:29;;;;;;;10.65;8.02;;;;;;;1.15;54.38;102866.84;5029270;28;20037;-61
2023/03/01 04:48:55;;;;;;;10.75;7.95;;;;;;;1.12;54.70;102859.78;5029447;28;20080;-61
2023/03/01 04:51:20;;;;;;;12.20;8.38;;;;;;;1.12;54.84;102850.72;5026214;28;20036;-60
2023/03/01 04:53:46;;;;;;;9.13;7.90;;;;;;;1.15;54.34;102851.31;5026927;28;20483;-61
2023/03/01 04:56:13;;;;;;;9.50;8.15;;;;;;;1.15;53.91;102844.97;5028989;28;20069;-60
2023/03/01 04:58:39;;;;;;;10.85;8.38;;;;;;;1.16;54.09;102842.06;5028912;28;20025;-61
2023/03/01 05:01:19;;;;;;;12.02;8.20;;;;;;;1.18;54.64;102840.09;5028336;28;20025;-60
2023/03/01 05:03:46;;;;;;;13.15;8.50;;;;;;;1.16;54.09;102850.28;5029299;28;20484;-61
2023/03/01 05:06:12;;;;;;;11.75;8.85;;;;;;;1.22;54.69;102843.41;5030070;28;20040;-61
2023/03/01 05:08:38;;;;;;;11.63;8.60;;;;;;;1.21;54.29;102844.38;5028992;28;20033;-61
2023/03/01 05:11:05;;;;;;;12.77;8.68;;;;;;;1.17;54.28;102849.28;5026840;28;20029;-60
2023/03/01 05:13:31;;;;;;;10.65;8.70;;;;;;;1.16;54.08;102847.56;5028596;28;20726;-61
2023/03/01 05:15:59;;;;;;;11.02;8.43;;;;;;;1.11;54.73;102849.00;5027815;28;20510;-61
2023/03/01 05:18:25;;;;;;;9.27;7.95;;;;;;;1.07;54.83;102853.88;5023074;28;20033;-61
2023/03/01 05:20:52;;;;;;;10.52;7.82;;;;;;;1.06;54.57;102845.81;5016478;28;20036;-61
2023/03/01 05:23:18;;;;;;;11.18;8.88;;;;;;;1.04;55.11;102837.75;5013470;28;20374;-61
2023/03/01 05:25:44;;;;;;;9.85;8.13;;;;;;;1.04;55.19;102836.88;5011821;28;20465;-61
2023/03/01 05:28:12;;;;;;;12.00;8.38;;;;;;;1.03;55.00;102827.81;5027953;28;20025;-60
2023/03/01 05:30:40;;;;;;;9.55;8.55;;;;;;;1.00;54.53;102827.25;5028233;28;20049;-61
2023/03/01 05:33:10;;;;;;;10.25;8.32;;;;;;;0.97;54.71;102820.19;5028724;28;20042;-61
2023/03/01 05:35:36;;;;;;;12.73;9.38;;;;;;;0.95;54.79;102819.47;5028021;28;20030;-61
2023/03/01 05:38:02;;;;;;;11.48;9.10;;;;;;;0.97;54.93;102814.72;5017442;28;20392;-61
2023/03/01 05:40:27;;;;;;;11.85;8.98;;;;;;;0.97;55.13;102809.25;5028811;28;20041;-61
2023/03/01 05:42:56;;;;;;;10.38;8.85;;;;;;;0.95;55.11;102814.00;5031457;28;20033;-60
2023/03/01 05:45:23;;;;;;;11.18;9.63;;;;;;;0.91;54.99;102798.88;5020406;28;20076;-61
2023/03/01 05:47:50;;;;;;;9.40;8.40;;;;;;;0.96;55.12;102796.59;5027939;28;20065;-61
2023/03/01 05:50:26;;;;;;;9.60;8.63;;;;;;;0.97;55.26;102798.31;5030422;28;20046;-60
2023/03/01 05:52:57;;;;;;;10.13;8.75;;;;;;;0.97;55.25;102801.03;5032925;28;20436;-61
2023/03/01 05:55:22;;;;;;;12.25;9.30;;;;;;;0.97;54.69;102801.03;5029818;28;20029;-61
2023/03/01 05:57:49;;;;;;;12.15;8.45;;;;;;;0.96;55.19;102804.78;5030488;28;20586;-61
2023/03/01 06:00:16;;;;;;;10.38;9.25;;;;;;;0.92;54.75;102801.47;5031155;28;20037;-61
2023/03/01 06:02:42;;;;;;;11.95;9.27;;;;;;;0.91;55.00;102804.34;5021071;28;20070;-61
2023/03/01 06:05:09;;;;;;;10.98;9.30;;;;;;;0.89;54.93;102806.34;5031093;28;20048;-61
2023/03/01 06:07:35;;;;;;;10.95;8.82;;;;;;;0.87;54.76;102802.91;5032587;28;20041;-60
2023/03/01 06:10:02;;;;;;;11.50;9.00;;;;;;;0.86;55.03;102807.50;5030789;28;20035;-61
2023/03/01 06:12:31;;;;;;;9.98;8.95;;;;;;;0.85;55.22;102800.31;5031550;28;20033;-61
2023/03/01 06:14:56;;;;;;;9.85;8.85;;;;;;;0.85;55.37;102800.31;5031681;28;20025;-61
2023/03/01 06:17:21;;;;;;;11.65;9.30;;;;;;;0.87;55.37;102802.91;5028829;28;20044;-61
2023/03/01 06:19:47;;;;;;;13.13;9.82;;;;;;;0.85;55.08;102797.56;5031725;28;20040;-60
2023/03/01 06:22:12;;;;;;;11.10;9.10;;;;;;;0.87;54.84;102797.44;5026437;28;20030;-59
2023/03/01 06:24:37;;;;;;;11.80;9.05;;;;;;;0.84;55.51;102800.47;5029373;28;20025;-60
2023/03/01 06:27:03;;;;;;;10.18;9.13;;;;;;;0.77;55.17;102802.88;5030979;28;20111;-59
2023/03/01 06:29:28;;;;;;;13.20;9.35;;;;;;;0.82;55.18;102800.56;5030565;28;20714;-60
2023/03/01 06:31:53;;;;;;;13.40;9.82;;;;;;;0.84;55.21;102808.66;5031207;28;20055;-61
2023/03/01 06:34:19;;;;;;;11.32;9.98;;;;;;;0.83;55.50;102805.06;5025109;28;20496;-60
2023/03/01 06:36:44;;;;;;;12.25;9.73;;;;;;;0.81;55.86;102809.78;5012557;28;20073;-60
2023/03/01 06:39:09;;;;;;;11.85;9.88;;;;;;;0.81;55.66;102806.19;5025053;28;20079;-60
2023/03/01 06:41:35;;;;;;;11.75;10.55;;;;;;;0.79;55.84;102816.44;5032118;28;20029;-60
2023/03/01 06:44:00;;;;;;;15.75;10.50;;;;;;;0.77;55.25;102812.97;5030396;28;20061;-61
2023/03/01 06:46:25;;;;;;;12.75;9.07;;;;;;;0.79;55.47;102810.97;5029086;28;20033;-61
2023/03/01 06:48:51;;;;;;;13.60;10.38;;;;;;;0.78;55.57;102810.06;5021678;28;20041;-62
2023/03/01 06:51:16;;;;;;;14.48;9.68;;;;;;;0.79;55.95;102805.50;5025611;28;20040;-61
2023/03/01 06:53:41;;;;;;;14.10;9.68;;;;;;;0.83;55.83;102810.53;5031316;28;20029;-61
2023/03/01 06:56:07;;;;;;;12.57;9.65;;;;;;;0.85;55.64;102810.38;5026077;28;20108;-61
2023/03/01 06:58:32;;;;;;;12.18;9.85;;;;;;;0.85;55.80;102815.84;5020821;28;20044;-61
2023/03/01 07:00:57;;;;;;;13.05;9.50;;;;;;;0.85;55.74;102805.78;5027686;28;20065;-61
2023/03/01 07:03:23;;;;;;;12.27;10.00;;;;;;;0.93;55.89;102813.25;5025086;28;20035;-61
2023/03/01 07:05:51;;;;;;;12.38;9.90;;;;;;;0.92;55.91;102798.75;5028764;28;20373;-61
2023/03/01 07:08:16;;;;;;;12.73;10.00;;;;;;;1.00;55.32;102800.75;5026637;28;20029;-61
2023/03/01 07:10:42;;;;;;;13.90;10.80;;;;;;;1.00;55.42;102792.56;5048618;28;20048;-62
2023/03/01 07:13:08;;;;;;;11.10;9.90;;;;;;;1.03;55.20;102805.94;5027907;28;20053;-62
2023/03/01 07:15:33;;;;;;;14.65;10.38;;;;;;;1.07;55.63;102798.31;5015955;28;20555;-61
2023/03/01 07:17:58;;;;;;;13.25;10.25;;;;;;;1.10;54.96;102803.47;5027963;28;20128;-61
2023/03/01 07:20:25;;;;;;;14.35;10.68;;;;;;;1.12;55.41;102799.63;5011178;28;20092;-60
2023/03/01 07:22:51;;;;;;;12.75;10.18;;;;;;;1.14;55.03;102807.66;5023587;28;20108;-61
2023/03/01 07:25:16;;;;;;;15.32;10.88;;;;;;;1.20;55.10;102818.91;5024255;28;20065;-60
2023/03/01 07:27:42;;;;;;;14.65;10.93;;;;;;;1.26;54.99;102817.47;5012274;28;20064;-60
2023/03/01 07:30:08;;;;;;;14.05;11.02;;;;;;;1.34;54.82;102812.16;5028675;28;20061;-60
2023/03/01 07:32:33;;;;;;;17.38;12.15;;;;;;;1.41;54.89;102824.22;5030187;28;20395;-61
2023/03/01 07:34:58;;;;;;;14.30;10.55;;;;;;;1.49;54.89;102820.75;5028285;28;20040;-61
2023/03/01 07:37:24;;;;;;;15.40;11.02;;;;;;;1.56;54.14;102819.19;5026488;28;20041;-60
2023/03/01 07:39:52;;;;;;;16.55;11.07;;;;;;;1.59;54.31;102816.16;5028011;28;20136;-60
2023/03/01 07:42:17;;;;;;;13.60;9.85;;;;;;;1.64;54.42;102827.53;5023935;28;20507;-61
2023/03/01 07:44:42;;;;;;;13.85;10.70;;;;;;;1.70;54.80;102824.22;5018128;28;20038;-59
2023/03/01 07:47:07;;;;;;;13.43;10.55;;;;;;;1.73;55.14;102817.59;5023243;28;20067;-60
2023/03/01 07:49:33;;;;;;;12.75;10.25;;;;;;;1.80;54.57;102815.97;5026230;28;20037;-60
2023/03/01 07:51:58;;;;;;;15.43;10.75;;;;;;;1.85;54.73;102818.28;5028719;28;20029;-59
2023/03/01 07:54:24;;;;;;;14.63;10.48;;;;;;;1.93;54.42;102821.16;5027224;28;20037;-61
2023/03/01 07:56:49;;;;;;;15.88;10.75;;;;;;;2.00;54.61;102816.78;5024527;28;20025;-61
2023/03/01 07:59:14;;;;;;;13.10;10.52;;;;;;;2.05;54.79;102821.84;5027615;28;20112;-62
2023/03/01 08:01:40;;;;;;;14.30;10.75;;;;;;;2.13;54.72;102811.84;5028801;28;20037;-61
2023/03/01 08:04:07;;;;;;;13.70;10.80;;;;;;;2.24;54.04;102812.66;5018342;28;20404;-62
2023/03/01 08:06:37;;;;;;;12.40;10.45;;;;;;;2.34;53.38;102819.84;5022303;28;20034;-61
2023/03/01 08:09:05;;;;;;;13.95;11.02;;;;;;;2.42;53.30;102817.19;5028551;28;20033;-62
2023/03/01 08:11:30;;;;;;;15.32;10.90;;;;;;;2.51;53.08;102814.56;5028974;28;20071;-62
2023/03/01 08:13:57;;;;;;;16.42;10.38;;;;;;;2.62;53.74;102819.84;5018265;28;20033;-62
2023/03/01 08:16:22;;;;;;;12.63;10.30;;;;;;;2.72;53.02;102815.19;5010530;28;20044;-62
2023/03/01 08:18:48;;;;;;;12.27;10.40;;;;;;;2.79;53.52;102819.03;5017777;28;20035;-62
2023/03/01 08:21:16;;;;;;;15.50;10.63;;;;;;;2.90;52.75;102816.06;5024193;28;20039;-62
2023/03/01 08:23:45;;;;;;;14.95;11.52;;;;;;;3.00;53.34;102823.38;5029880;28;20025;-62
2023/03/01 08:26:13;;;;;;;14.07;10.93;;;;;;;3.10;53.17;102813.19;5028695;28;20473;-62
2023/03/01 08:28:39;;;;;;;14.82;11.07;;;;;;;3.20;52.78;102809.34;5029768;28;20400;-61
2023/03/01 08:31:23;;;;;;;15.45;11.43;;;;;;;3.32;53.02;102806.38;5024694;28;20030;-62
2023/03/01 08:33:54;;;;;;;13.43;10.77;;;;;;;3.41;52.16;102805.41;5027229;28;20091;-61
2023/03/01 08:36:21;;;;;;;15.10;10.07;;;;;;;3.51;52.44;102806.19;5027706;28;20025;-62
2023/03/01 08:38:47;;;;;;;12.25;10.18;;;;;;;3.61;51.86;102803.34;5033500;28;20103;-61
2023/03/01 08:41:15;;;;;;;13.57;10.88;;;;;;;3.67;51.26;102805.47;5039179;28;20140;-61
2023/03/01 08:43:41;;;;;;;13.25;11.18;;;;;;;3.72;51.06;102796.75;5029068;28;20476;-61
2023/03/01 08:46:07;;;;;;;13.40;11.15;;;;;;;3.82;51.39;102801.13;5026370;28;20032;-61
2023/03/01 08:48:32;;;;;;;15.57;11.23;;;;;;;3.88;50.93;102785.88;5029335;28;20060;-61
2023/03/01 08:51:07;;;;;;;13.25;10.30;;;;;;;3.97;50.93;102776.69;5029282;28;20080;-61
2023/03/01 08:53:32;;;;;;;13.98;10.63;;;;;;;4.07;50.56;102774.66;5025704;28;20580;-61
2023/03/01 08:56:02;;;;;;;11.95;10.23;;;;;;;4.17;49.98;102780.06;5033671;28;20119;-61
2023/03/01 08:58:27;;;;;;;12.90;9.55;;;;;;;4.22;50.18;102783.16;5029384;28;20087;-61
2023/03/01 09:00:53;;;;;;;12.70;10.27;;;;;;;4.32;50.00;102788.50;5028812;28;20018;-60
2023/03/01 09:03:18;;;;;;;12.70;10.07;;;;;;;4.37;49.54;102788.91;5028905;28;20476;-62
2023/03/01 09:05:45;;;;;;;15.20;10.90;;;;;;;4.49;49.80;102787.59;5023587;28;20029;-62
2023/03/01 09:08:11;;;;;;;11.20;9.68;;;;;;;4.59;49.74;102770.94;5027429;28;20029;-62
2023/03/01 09:10:38;;;;;;;12.02;9.82;;;;;;;4.68;49.80;102778.19;5015327;28;20029;-62
2023/03/01 09:13:03;;;;;;;12.57;9.65;;;;;;;4.73;48.85;102775.81;5031334;28;20071;-61
2023/03/01 09:15:29;;;;;;;15.20;10.00;;;;;;;4.80;49.10;102767.75;5012965;28;20065;-62
2023/03/01 09:17:54;;;;;;;12.95;9.85;;;;;;;4.87;48.71;102761.41;5020107;28;20033;-62
2023/03/01 09:20:19;;;;;;;13.75;9.77;;;;;;;4.95;47.95;102759.66;5031550;28;20025;-61
2023/03/01 09:22:45;;;;;;;15.85;9.65;;;;;;;5.01;47.69;102762.63;5033149;28;20100;-62
2023/03/01 09:25:10;;;;;;;11.55;9.18;;;;;;;5.03;46.64;102759.69;5032740;28;20358;-62
2023/03/01 09:27:35;;;;;;;12.85;9.40;;;;;;;5.08;46.79;102760.06;5023209;28;20359;-61
2023/03/01 09:30:01;;;;;;;11.80;9.57;;;;;;;5.12;46.98;102759.53;5013547;28;20034;-62
2023/03/01 09:32:26;;;;;;;12.70;8.93;;;;;;;5.21;47.09;102756.78;5028653;28;20021;-62
2023/03/01 09:35:03;;;;;;;11.50;9.23;;;;;;;5.28;47.26;102757.84;5032172;28;20443;-62
2023/03/01 09:37:29;;;;;;;12.10;9.55;;;;;;;5.33;46.58;102756.28;5028812;28;20037;-62
2023/03/01 09:39:55;;;;;;;11.32;9.70;;;;;;;5.39;46.16;102752.84;5032652;28;20561;-61
2023/03/01 09:42:21;;;;;;;13.88;9.15;;;;;;;5.45;46.08;102753.19;5031873;28;20079;-61
2023/03/01 09:44:59;;;;;;;11.73;9.48;;;;;;;5.53;46.37;102751.28;5028304;28;20045;-61
2023/03/01 09:47:28;;;;;;;13.18;10.15;;;;;;;5.60;46.27;102746.78;5028947;28;20596;-60
2023/03/01 09:50:00;;;;;;;12.43;9.38;;;;;;;5.66;45.35;102737.00;5031855;28;20032;-61
2023/03/01 09:52:34;;;;;;;10.75;8.93;;;;;;;5.72;46.00;102741.78;5032626;28;20088;-60
2023/03/01 09:55:00;;;;;;;10.93;8.57;;;;;;;5.78;45.29;102732.84;5031247;28;20029;-62
2023/03/01 09:57:38;;;;;;;10.77;8.70;;;;;;;5.84;44.00;102731.25;5031693;28;20534;-61
2023/03/01 10:00:18;;;;;;;10.43;9.00;;;;;;;5.90;44.18;102727.81;5031586;28;20029;-61
2023/03/01 10:03:00;;;;;;;9.57;8.38;;;;;;;5.96;44.29;102723.50;5014944;28;20815;-61
2023/03/01 10:05:43;;;;;;;10.97;8.63;;;;;;;6.04;43.74;102717.97;5016987;28;20025;-60
2023/03/01 10:08:29;;;;;;;10.90;8.75;;;;;;;6.13;44.51;102716.88;5026462;28;20105;-59
2023/03/01 10:10:54;;;;;;;12.10;8.55;;;;;;;6.15;43.17;102707.41;5020740;28;20079;-60
2023/03/01 10:13:43;;;;;;;12.20;8.60;;;;;;;6.22;44.02;102702.06;5030626;28;20037;-60
2023/03/01 10:16:20;;;;;;;11.07;8.88;;;;;;;6.25;43.37;102700.81;5031181;28;20029;-61
2023/03/01 10:18:51;;;;;;;10.23;8.55;;;;;;;6.22;42.36;102695.69;5015128;28;20029;-61
2023/03/01 10:21:20;;;;;;;11.55;8.60;;;;;;;6.24;42.47;102696.34;5012245;28;20065;-61
2023/03/01 10:23:46;;;;;;;11.80;9.10;;;;;;;6.25;42.41;102687.03;5010848;28;20775;-61
2023/03/01 10:26:14;;;;;;;10.45;8.15;;;;;;;6.32;42.43;102685.28;5013613;28;20041;-61
2023/03/01 10:29:02;;;;;;;10.65;9.02;;;;;;;6.40;43.72;102679.72;5028007;28;20033;-62
2023/03/01 10:31:42;;;;;;;10.75;8.55;;;;;;;6.45;42.77;102673.69;5029558;28;20033;-61
2023/03/01 10:34:10;;;;;;;13.93;8.85;;;;;;;6.47;42.79;102677.94;5022429;28;20025;-61
2023/03/01 10:36:39;;;;;;;10.25;8.32;;;;;;;6.50;42.31;102672.06;5025810;28;20025;-61
2023/03/01 10:39:20;;;;;;;11.63;8.73;;;;;;;6.44;42.08;102678.31;5016874;28;20156;-61
2023/03/01 10:42:18;;;;;;;11.98;8.98;;;;;;;6.43;42.99;102668.31;5030352;28;20498;-60
2023/03/01 10:44:48;;;;;;;13.25;9.23;;;;;;;6.49;42.12;102678.66;5011208;28;20137;-61
2023/03/01 10:47:20;;;;;;;10.68;8.40;;;;;;;6.52;42.13;102674.63;5029303;28;20029;-62
2023/03/01 10:49:55;;;;;;;11.40;8.88;;;;;;;6.56;41.85;102673.22;5031923;28;20021;-61
2023/03/01 10:52:24;;;;;;;12.23;8.88;;;;;;;6.58;41.93;102666.50;5028586;28;20100;-60
2023/03/01 10:54:54;;;;;;;10.93;9.00;;;;;;;6.61;41.53;102673.56;5037863;28;20034;-61
2023/03/01 10:57:38;;;;;;;11.30;9.30;;;;;;;6.69;42.87;102669.91;5030385;28;20544;-61
2023/03/01 11:00:22;;;;;;;10.18;8.55;;;;;;;6.71;41.32;102667.81;5030523;28;20538;-61
2023/03/01 11:03:10;;;;;;;9.88;8.48;;;;;;;6.63;41.01;102661.28;5031832;28;20041;-61
2023/03/01 11:05:36;;;;;;;12.65;9.25;;;;;;;6.63;41.12;102666.81;5031300;28;20021;-61
2023/03/01 11:08:03;;;;;;;11.48;8.48;;;;;;;6.66;40.93;102664.75;5026833;28;20030;-61
2023/03/01 11:10:34;;;;;;;10.20;9.15;;;;;;;6.69;40.53;102665.22;5030117;28;20022;-62
2023/03/01 11:13:15;;;;;;;12.15;9.02;;;;;;;6.70;41.09;102664.19;5028313;28;20048;-62
2023/03/01 11:15:41;;;;;;;14.63;10.18;;;;;;;6.68;39.97;102663.53;5030636;28;20030;-60
2023/03/01 11:18:20;;;;;;;10.38;8.85;;;;;;;6.71;41.23;102662.28;5029580;28;20112;-62
2023/03/01 11:20:46;;;;;;;13.70;10.20;;;;;;;6.63;39.93;102658.53;5030025;28;20021;-61
2023/03/01 11:23:14;;;;;;;12.60;9.52;;;;;;;6.68;41.07;102657.13;5030648;28;20025;-61
2023/03/01 11:25:43;;;;;;;12.02;9.13;;;;;;;6.68;40.63;102657.13;5028735;28;20432;-61
2023/03/01 11:28:14;;;;;;;12.95;9.73;;;;;;;6.71;41.43;102656.75;5049622;28;20765;-61
2023/03/01 11:30:48;;;;;;;13.47;9.63;;;;;;;6.73;40.21;102660.22;5050896;28;20090;-61